createdAt,value
2017-10-29T00:00:20.867Z,16.2
2017-10-29T00:01:22.483Z,16.3
2017-10-29T00:02:24.102Z,15.8
2017-10-29T00:03:25.718Z,17.2
2017-10-29T00:04:27.335Z,16.5
2017-10-29T00:05:28.953Z,16.6
2017-10-29T00:06:30.566Z,16.9
2017-10-29T00:07:32.179Z,16.3
2017-10-29T00:08:33.793Z,16.5
2017-10-29T00:09:35.409Z,16.2
2017-10-29T00:10:37.024Z,15.6
2017-10-29T00:11:38.643Z,14.7
2017-10-29T00:12:40.259Z,14.8
2017-10-29T00:13:41.871Z,14.8
2017-10-29T00:14:43.488Z,15.2
2017-10-29T00:15:45.104Z,15.4
2017-10-29T00:16:46.719Z,14.8
2017-10-29T00:17:48.339Z,15.1
2017-10-29T00:18:49.954Z,15.5
2017-10-29T00:19:51.569Z,14.8
2017-10-29T00:20:53.180Z,14.3
2017-10-29T00:21:54.795Z,14.9
2017-10-29T00:22:56.411Z,14.5
2017-10-29T00:23:58.035Z,14.1
2017-10-29T00:24:59.643Z,14.1
2017-10-29T00:26:01.260Z,14.2
2017-10-29T00:27:02.876Z,13.7
2017-10-29T00:28:04.488Z,13.5
2017-10-29T00:29:06.101Z,13.8
2017-10-29T00:30:07.714Z,14.4
2017-10-29T00:31:09.332Z,14.8
2017-10-29T00:32:10.947Z,13.8
2017-10-29T00:33:12.565Z,14.2
2017-10-29T00:34:14.180Z,14.2
2017-10-29T00:35:15.794Z,14.8
2017-10-29T00:36:17.410Z,14.4
2017-10-29T00:37:19.030Z,15.2
2017-10-29T00:38:20.645Z,14.8
2017-10-29T00:39:22.260Z,14.3
2017-10-29T00:40:23.879Z,15.0
2017-10-29T00:41:25.493Z,14.8
2017-10-29T00:42:27.107Z,15.9
2017-10-29T00:43:28.724Z,14.9
2017-10-29T00:44:30.340Z,15.4
2017-10-29T00:45:31.954Z,14.4
2017-10-29T00:46:33.571Z,14.5
2017-10-29T00:47:35.186Z,15.2
2017-10-29T00:48:36.801Z,15.1
2017-10-29T00:49:38.417Z,14.8
2017-10-29T00:50:40.033Z,14.7
2017-10-29T00:51:41.649Z,14.3
2017-10-29T00:52:43.260Z,13.9
2017-10-29T00:53:44.876Z,14.4
2017-10-29T00:54:46.488Z,14.4
2017-10-29T00:55:48.103Z,13.8
2017-10-29T00:56:49.719Z,14.7
2017-10-29T00:57:51.333Z,14.0
2017-10-29T00:58:52.955Z,14.5
2017-10-29T00:59:54.567Z,15.2
2017-10-29T01:00:56.183Z,15.3
2017-10-29T01:01:57.799Z,15.2
2017-10-29T01:02:59.417Z,14.3
2017-10-29T01:04:01.031Z,14.5
2017-10-29T01:05:02.646Z,14.0
2017-10-29T01:06:04.265Z,15.0
2017-10-29T01:07:05.875Z,15.1
2017-10-29T01:08:07.494Z,14.7
2017-10-29T01:09:09.114Z,14.2
2017-10-29T01:10:10.744Z,13.3
2017-10-29T01:11:12.358Z,13.9
2017-10-29T01:12:13.973Z,13.9
2017-10-29T01:13:15.589Z,13.9
2017-10-29T01:14:17.210Z,12.9
2017-10-29T01:15:18.820Z,14.5
2017-10-29T01:16:20.438Z,13.7
2017-10-29T01:17:22.049Z,14.4
2017-10-29T01:18:23.665Z,12.8
2017-10-29T01:19:25.284Z,12.7
2017-10-29T01:20:26.896Z,12.2
2017-10-29T01:21:28.515Z,12.7
2017-10-29T01:22:30.129Z,11.0
2017-10-29T01:23:31.742Z,10.9
2017-10-29T01:24:33.363Z,10.8
2017-10-29T01:25:34.977Z,10.0
2017-10-29T01:26:36.591Z,10.9
2017-10-29T01:27:38.204Z,11.0
2017-10-29T01:28:39.821Z,10.7
2017-10-29T01:29:41.436Z,9.9
2017-10-29T01:30:43.054Z,9.3
2017-10-29T01:31:44.668Z,9.5
2017-10-29T01:32:46.283Z,9.1
2017-10-29T01:33:47.895Z,9.9
2017-10-29T01:34:49.505Z,9.8
2017-10-29T01:35:51.121Z,9.2
2017-10-29T01:36:52.738Z,8.9
2017-10-29T01:37:54.349Z,8.5
2017-10-29T01:38:55.966Z,8.2
2017-10-29T01:39:57.576Z,7.7
2017-10-29T01:40:59.186Z,7.8
2017-10-29T01:42:00.803Z,8.2
2017-10-29T01:43:02.764Z,7.5
2017-10-29T01:44:04.616Z,8.3
2017-10-29T01:45:06.279Z,7.5
2017-10-29T01:46:07.886Z,8.2
2017-10-29T01:47:09.599Z,8.2
2017-10-29T01:48:11.227Z,8.2
2017-10-29T01:49:12.845Z,8.0
2017-10-29T01:50:14.496Z,8.5
2017-10-29T01:51:16.167Z,8.3
2017-10-29T01:52:17.854Z,8.5
2017-10-29T01:53:19.572Z,8.3
2017-10-29T01:54:21.264Z,8.5
2017-10-29T01:55:22.874Z,8.8
2017-10-29T01:56:24.527Z,8.7
2017-10-29T01:57:26.182Z,8.1
2017-10-29T01:58:27.822Z,8.8
2017-10-29T01:59:29.523Z,8.7
2017-10-29T02:00:31.150Z,9.2
2017-10-29T02:01:32.822Z,9.2
2017-10-29T02:02:34.433Z,8.8
2017-10-29T02:03:36.044Z,8.5
2017-10-29T02:04:37.715Z,8.8
2017-10-29T02:05:39.406Z,8.5
2017-10-29T02:06:41.061Z,8.7
2017-10-29T02:07:42.689Z,8.4
2017-10-29T02:08:44.312Z,8.9
2017-10-29T02:09:46.014Z,8.6
2017-10-29T02:10:47.637Z,8.3
2017-10-29T02:11:49.337Z,8.9
2017-10-29T02:12:50.955Z,8.1
2017-10-29T02:13:52.581Z,7.7
2017-10-29T02:14:54.202Z,7.5
2017-10-29T02:15:55.877Z,8.0
2017-10-29T02:16:57.528Z,7.0
2017-10-29T02:17:59.164Z,7.3
2017-10-29T02:19:00.813Z,7.7
2017-10-29T02:20:02.432Z,6.9
2017-10-29T02:21:04.090Z,7.0
2017-10-29T02:22:05.713Z,6.8
2017-10-29T02:23:07.376Z,6.9
2017-10-29T02:24:08.956Z,6.0
2017-10-29T02:25:10.607Z,6.2
2017-10-29T02:26:12.230Z,6.0
2017-10-29T02:27:13.898Z,5.6
2017-10-29T02:28:15.560Z,5.9
2017-10-29T02:29:17.191Z,5.8
2017-10-29T02:30:18.808Z,5.9
2017-10-29T02:31:20.559Z,5.2
2017-10-29T02:32:22.177Z,5.4
2017-10-29T02:33:23.828Z,6.1
2017-10-29T02:34:25.463Z,6.2
2017-10-29T02:35:27.109Z,6.0
2017-10-29T02:36:28.738Z,5.3
2017-10-29T02:37:30.354Z,5.0
2017-10-29T02:38:32.055Z,5.1
2017-10-29T02:39:33.749Z,5.3
2017-10-29T02:40:35.363Z,4.7
2017-10-29T02:41:36.980Z,4.8
2017-10-29T02:42:38.595Z,4.7
2017-10-29T02:43:40.224Z,4.5
2017-10-29T02:44:41.876Z,4.5
2017-10-29T02:45:43.500Z,4.4
2017-10-29T02:46:45.156Z,3.9
2017-10-29T02:47:46.788Z,4.4
2017-10-29T02:48:48.448Z,4.1
2017-10-29T02:49:50.062Z,4.6
2017-10-29T02:50:51.723Z,4.4
2017-10-29T02:51:53.361Z,3.7
2017-10-29T02:52:54.981Z,4.0
2017-10-29T02:53:56.623Z,4.4
2017-10-29T02:54:58.228Z,4.3
2017-10-29T02:55:59.840Z,4.2
2017-10-29T02:57:01.462Z,4.2
2017-10-29T02:58:03.102Z,3.8
2017-10-29T02:59:04.743Z,3.5
2017-10-29T03:00:06.381Z,3.9
2017-10-29T03:01:08.000Z,4.0
2017-10-29T03:02:09.622Z,3.8
2017-10-29T03:03:11.243Z,4.5
2017-10-29T03:04:12.865Z,4.7
2017-10-29T03:05:14.502Z,4.4
2017-10-29T03:06:16.122Z,4.8
2017-10-29T03:07:17.744Z,4.4
2017-10-29T03:08:19.350Z,4.7
2017-10-29T03:09:20.977Z,4.6
2017-10-29T03:10:22.612Z,4.9
2017-10-29T03:11:24.254Z,4.9
2017-10-29T03:12:25.881Z,4.5
2017-10-29T03:13:27.513Z,4.3
2017-10-29T03:14:29.192Z,4.2
2017-10-29T03:15:30.817Z,4.3
2017-10-29T03:16:32.445Z,4.2
2017-10-29T03:17:34.065Z,3.9
2017-10-29T03:18:35.699Z,4.2
2017-10-29T03:19:37.317Z,3.9
2017-10-29T03:20:38.949Z,4.0
2017-10-29T03:21:40.569Z,4.1
2017-10-29T03:22:42.183Z,4.4
2017-10-29T03:23:43.802Z,3.9
2017-10-29T03:24:45.495Z,4.2
2017-10-29T03:25:47.183Z,4.0
2017-10-29T03:26:48.800Z,4.1
2017-10-29T03:27:50.445Z,4.1
2017-10-29T03:28:52.085Z,3.7
2017-10-29T03:29:53.799Z,4.1
2017-10-29T03:30:55.441Z,3.9
2017-10-29T03:31:57.061Z,3.7
2017-10-29T03:32:58.718Z,3.3
2017-10-29T03:34:00.463Z,3.2
2017-10-29T03:35:02.137Z,3.2
2017-10-29T03:36:03.740Z,3.1
2017-10-29T03:37:05.355Z,3.7
2017-10-29T03:38:07.008Z,3.4
2017-10-29T03:39:08.685Z,2.7
2017-10-29T03:40:10.294Z,2.9
2017-10-29T03:41:11.913Z,3.1
2017-10-29T03:42:13.602Z,3.6
2017-10-29T03:43:15.247Z,2.8
2017-10-29T03:44:16.898Z,3.5
2017-10-29T03:45:18.545Z,2.8
2017-10-29T03:46:20.220Z,2.7
2017-10-29T03:47:21.841Z,2.7
2017-10-29T03:48:23.464Z,3.0
2017-10-29T03:49:25.122Z,2.7
2017-10-29T03:50:26.776Z,2.5
2017-10-29T03:51:28.396Z,2.7
2017-10-29T03:52:30.015Z,3.1
2017-10-29T03:53:31.648Z,2.8
2017-10-29T03:54:33.276Z,2.5
2017-10-29T03:55:34.900Z,2.6
2017-10-29T03:56:36.527Z,2.4
2017-10-29T03:57:38.190Z,2.6
2017-10-29T03:58:39.860Z,2.6
2017-10-29T03:59:41.515Z,2.3
2017-10-29T04:00:43.160Z,2.3
2017-10-29T04:01:44.805Z,2.8
2017-10-29T04:02:46.549Z,2.5
2017-10-29T04:03:48.209Z,2.4
2017-10-29T04:04:49.823Z,1.9
2017-10-29T04:05:51.504Z,2.3
2017-10-29T04:06:53.124Z,2.5
2017-10-29T04:07:54.756Z,2.3
2017-10-29T04:08:56.399Z,1.9
2017-10-29T04:09:58.025Z,1.8
2017-10-29T04:10:59.655Z,2.0
2017-10-29T04:12:01.266Z,1.9
2017-10-29T04:13:02.887Z,1.7
2017-10-29T04:14:04.523Z,1.7
2017-10-29T04:15:06.139Z,1.6
2017-10-29T04:16:07.773Z,1.3
2017-10-29T04:17:09.397Z,1.6
2017-10-29T04:18:11.021Z,1.5
2017-10-29T04:19:12.633Z,1.5
2017-10-29T04:20:14.332Z,1.7
2017-10-29T04:21:15.955Z,1.6
2017-10-29T04:22:17.562Z,1.3
2017-10-29T04:23:19.175Z,1.6
2017-10-29T04:24:20.808Z,2.3
2017-10-29T04:25:22.460Z,2.1
2017-10-29T04:26:24.076Z,2.0
2017-10-29T04:27:25.722Z,1.7
2017-10-29T04:28:27.335Z,2.0
2017-10-29T04:29:28.954Z,1.8
2017-10-29T04:30:30.570Z,1.5
2017-10-29T04:31:32.197Z,1.8
2017-10-29T04:32:33.803Z,2.0
2017-10-29T04:33:35.422Z,1.7
2017-10-29T04:34:37.032Z,1.8
2017-10-29T04:35:38.666Z,1.9
2017-10-29T04:36:40.284Z,1.9
2017-10-29T04:37:41.918Z,1.8
2017-10-29T04:38:43.556Z,1.9
2017-10-29T04:39:45.171Z,1.6
2017-10-29T04:40:46.780Z,2.1
2017-10-29T04:41:48.394Z,1.8
2017-10-29T04:42:50.012Z,1.9
2017-10-29T04:43:51.622Z,1.9
2017-10-29T04:44:53.235Z,2.2
2017-10-29T04:45:54.849Z,1.9
2017-10-29T04:46:56.458Z,1.8
2017-10-29T04:47:58.073Z,2.1
2017-10-29T04:48:59.684Z,1.9
2017-10-29T04:50:01.320Z,1.9
2017-10-29T04:51:02.909Z,1.8
2017-10-29T04:52:04.529Z,1.8
2017-10-29T04:53:06.202Z,1.8
2017-10-29T04:54:07.809Z,1.7
2017-10-29T04:55:09.433Z,1.6
2017-10-29T04:56:11.076Z,1.9
2017-10-29T04:57:12.715Z,2.0
2017-10-29T04:58:14.332Z,2.0
2017-10-29T04:59:15.968Z,1.8
2017-10-29T05:00:17.579Z,1.9
2017-10-29T05:01:19.193Z,1.8
2017-10-29T05:02:20.804Z,1.5
2017-10-29T05:03:22.423Z,1.6
2017-10-29T05:04:24.060Z,1.6
2017-10-29T05:05:25.678Z,1.5
2017-10-29T05:06:27.292Z,1.6
2017-10-29T05:07:28.929Z,2.0
2017-10-29T05:08:30.555Z,2.8
2017-10-29T05:09:32.170Z,2.1
2017-10-29T05:10:33.786Z,2.4
2017-10-29T05:11:35.429Z,3.0
2017-10-29T05:12:37.066Z,3.3
2017-10-29T05:13:38.707Z,3.3
2017-10-29T05:14:40.340Z,3.2
2017-10-29T05:15:41.939Z,3.6
2017-10-29T05:16:43.592Z,3.6
2017-10-29T05:17:45.201Z,3.4
2017-10-29T05:18:46.815Z,2.6
2017-10-29T05:19:48.518Z,3.2
2017-10-29T05:20:50.141Z,1.8
2017-10-29T05:21:51.759Z,2.2
2017-10-29T05:22:53.396Z,2.5
2017-10-29T05:23:55.016Z,1.9
2017-10-29T05:24:56.688Z,1.5
2017-10-29T05:25:58.303Z,2.0
2017-10-29T05:26:59.918Z,2.5
2017-10-29T05:28:01.531Z,2.0
2017-10-29T05:29:03.148Z,1.9
2017-10-29T05:30:04.763Z,2.6
2017-10-29T05:31:06.375Z,2.1
2017-10-29T05:32:07.998Z,2.1
2017-10-29T05:33:09.615Z,2.1
2017-10-29T05:34:11.230Z,1.8
2017-10-29T05:35:12.841Z,2.1
2017-10-29T05:36:14.469Z,2.5
2017-10-29T05:37:16.153Z,1.8
2017-10-29T05:38:17.774Z,2.2
2017-10-29T05:39:19.393Z,2.4
2017-10-29T05:40:21.007Z,2.4
2017-10-29T05:41:22.640Z,2.6
2017-10-29T05:42:24.268Z,2.8
2017-10-29T05:43:25.892Z,2.3
2017-10-29T05:44:27.511Z,2.7
2017-10-29T05:45:29.128Z,2.9
2017-10-29T05:46:30.766Z,2.8
2017-10-29T05:47:32.386Z,2.8
2017-10-29T05:48:34.000Z,3.0
2017-10-29T05:49:35.610Z,3.1
2017-10-29T05:50:37.236Z,2.8
2017-10-29T05:51:38.850Z,2.8
2017-10-29T05:52:40.472Z,2.9
2017-10-29T05:53:42.088Z,2.6
2017-10-29T05:54:43.700Z,2.8
2017-10-29T05:55:45.351Z,2.6
2017-10-29T05:56:46.966Z,3.1
2017-10-29T05:57:48.586Z,2.5
2017-10-29T05:58:50.205Z,2.6
2017-10-29T05:59:51.831Z,3.1
2017-10-29T06:00:53.443Z,3.1
2017-10-29T06:01:55.079Z,3.1
2017-10-29T06:02:56.678Z,3.0
2017-10-29T06:03:58.300Z,2.7
2017-10-29T06:04:59.913Z,2.6
2017-10-29T06:06:01.527Z,2.7
2017-10-29T06:07:03.141Z,3.1
2017-10-29T06:08:04.754Z,2.3
2017-10-29T06:09:06.372Z,3.7
2017-10-29T06:10:07.987Z,2.9
2017-10-29T06:11:09.601Z,2.7
2017-10-29T06:12:11.232Z,3.0
2017-10-29T06:13:12.834Z,3.1
2017-10-29T06:14:14.456Z,3.2
2017-10-29T06:15:16.067Z,3.0
2017-10-29T06:16:17.681Z,3.0
2017-10-29T06:17:19.298Z,2.6
2017-10-29T06:18:20.914Z,3.1
2017-10-29T06:19:22.546Z,3.1
2017-10-29T06:20:24.158Z,3.3
2017-10-29T06:21:25.773Z,3.5
2017-10-29T06:22:27.387Z,2.5
2017-10-29T06:23:29.005Z,2.8
2017-10-29T06:24:30.623Z,2.9
2017-10-29T06:25:32.244Z,3.1
2017-10-29T06:26:33.856Z,3.0
2017-10-29T06:27:35.470Z,3.1
2017-10-29T06:28:37.090Z,2.8
2017-10-29T06:29:38.705Z,2.8
2017-10-29T06:30:40.322Z,3.4
2017-10-29T06:31:41.937Z,2.5
2017-10-29T06:32:43.555Z,2.8
2017-10-29T06:33:45.172Z,3.7
2017-10-29T06:34:46.790Z,3.2
2017-10-29T06:35:48.406Z,3.1
2017-10-29T06:36:50.023Z,3.0
2017-10-29T06:37:51.867Z,3.4
2017-10-29T06:38:53.504Z,3.1
2017-10-29T06:39:55.118Z,3.1
2017-10-29T06:40:56.735Z,3.4
2017-10-29T06:41:58.349Z,3.5
2017-10-29T06:42:59.968Z,4.1
2017-10-29T06:44:01.585Z,4.1
2017-10-29T06:45:03.199Z,4.3
2017-10-29T06:46:04.815Z,3.4
2017-10-29T06:47:06.452Z,3.5
2017-10-29T06:48:08.051Z,3.6
2017-10-29T06:49:09.663Z,4.0
2017-10-29T06:50:11.275Z,3.5
2017-10-29T06:51:12.890Z,3.8
2017-10-29T06:52:14.505Z,4.3
2017-10-29T06:53:16.123Z,4.9
2017-10-29T06:54:17.738Z,5.5
2017-10-29T06:55:19.354Z,5.3
2017-10-29T06:56:20.969Z,5.7
2017-10-29T06:57:22.584Z,5.4
2017-10-29T06:58:24.198Z,5.8
2017-10-29T06:59:25.818Z,6.2
2017-10-29T07:00:27.440Z,6.2
2017-10-29T07:01:29.056Z,5.7
2017-10-29T07:02:30.673Z,6.7
2017-10-29T07:03:32.290Z,6.2
2017-10-29T07:04:33.905Z,6.1
2017-10-29T07:05:35.517Z,6.1
2017-10-29T07:06:37.137Z,5.1
2017-10-29T07:07:38.753Z,5.5
2017-10-29T07:08:40.369Z,5.2
2017-10-29T07:09:41.986Z,5.8
2017-10-29T07:10:43.603Z,5.0
2017-10-29T07:11:45.220Z,5.4
2017-10-29T07:12:46.838Z,5.4
2017-10-29T07:13:48.457Z,4.9
2017-10-29T07:14:50.071Z,5.3
2017-10-29T07:15:51.689Z,5.1
2017-10-29T07:16:53.305Z,5.3
2017-10-29T07:17:55.277Z,5.1
2017-10-29T07:18:56.892Z,5.2
2017-10-29T07:19:58.508Z,5.1
2017-10-29T07:21:00.130Z,4.6
2017-10-29T07:22:01.748Z,5.2
2017-10-29T07:23:03.368Z,5.0
2017-10-29T07:24:04.986Z,5.5
2017-10-29T07:25:06.599Z,5.8
2017-10-29T07:26:08.220Z,5.2
2017-10-29T07:27:09.838Z,5.3
2017-10-29T07:28:11.462Z,5.3
2017-10-29T07:29:13.087Z,4.8
2017-10-29T07:30:14.693Z,4.7
2017-10-29T07:31:16.313Z,5.0
2017-10-29T07:32:17.933Z,4.0
2017-10-29T07:33:19.551Z,4.6
2017-10-29T07:34:21.167Z,4.3
2017-10-29T07:35:22.785Z,5.0
2017-10-29T07:36:24.403Z,4.4
2017-10-29T07:37:26.042Z,4.1
2017-10-29T07:38:27.661Z,4.7
2017-10-29T07:39:29.279Z,4.8
2017-10-29T07:40:30.897Z,5.2
2017-10-29T07:41:32.508Z,4.8
2017-10-29T07:42:34.123Z,4.6
2017-10-29T07:43:35.746Z,5.1
2017-10-29T07:44:37.370Z,4.8
2017-10-29T07:45:38.981Z,4.6
2017-10-29T07:46:40.594Z,4.8
2017-10-29T07:47:42.215Z,4.6
2017-10-29T07:48:43.835Z,4.5
2017-10-29T07:49:45.451Z,4.3
2017-10-29T07:50:47.071Z,5.0
2017-10-29T07:51:48.692Z,4.6
2017-10-29T07:52:50.308Z,4.8
2017-10-29T07:53:51.920Z,4.7
2017-10-29T07:54:53.540Z,4.2
2017-10-29T07:55:55.160Z,4.8
2017-10-29T07:56:56.812Z,4.7
2017-10-29T07:57:58.397Z,4.7
2017-10-29T07:59:00.019Z,4.8
2017-10-29T08:00:01.640Z,5.5
2017-10-29T08:01:03.257Z,4.5
2017-10-29T08:02:04.878Z,4.2
2017-10-29T08:03:06.490Z,4.9
2017-10-29T08:04:08.111Z,5.1
2017-10-29T08:05:09.731Z,4.9
2017-10-29T08:06:11.363Z,4.8
2017-10-29T08:07:12.971Z,4.4
2017-10-29T08:08:14.587Z,5.2
2017-10-29T08:09:16.206Z,4.8
2017-10-29T08:10:17.823Z,4.5
2017-10-29T08:11:19.443Z,5.1
2017-10-29T08:12:21.061Z,4.4
2017-10-29T08:13:22.673Z,4.5
2017-10-29T08:14:24.305Z,4.6
2017-10-29T08:15:25.922Z,4.0
2017-10-29T08:16:27.539Z,4.3
2017-10-29T08:17:29.168Z,4.3
2017-10-29T08:18:30.783Z,4.4
2017-10-29T08:19:32.400Z,4.3
2017-10-29T08:20:34.019Z,4.2
2017-10-29T08:21:35.641Z,4.4
2017-10-29T08:22:37.259Z,4.4
2017-10-29T08:23:38.878Z,4.1
2017-10-29T08:24:40.507Z,4.7
2017-10-29T08:25:42.138Z,3.9
2017-10-29T08:26:43.742Z,3.7
2017-10-29T08:27:45.364Z,4.1
2017-10-29T08:28:46.990Z,4.1
2017-10-29T08:29:48.609Z,4.8
2017-10-29T08:30:50.229Z,4.5
2017-10-29T08:31:51.850Z,4.3
2017-10-29T08:32:53.472Z,4.1
2017-10-29T08:33:55.093Z,4.5
2017-10-29T08:34:56.716Z,5.1
2017-10-29T08:35:58.339Z,4.7
2017-10-29T08:36:59.965Z,4.7
2017-10-29T08:38:01.587Z,4.5
2017-10-29T08:39:03.205Z,4.5
2017-10-29T08:40:04.823Z,5.5
2017-10-29T08:41:06.444Z,5.0
2017-10-29T08:42:08.068Z,4.8
2017-10-29T08:43:09.693Z,3.7
2017-10-29T08:44:11.319Z,3.8
2017-10-29T08:45:12.941Z,3.9
2017-10-29T08:46:14.562Z,4.3
2017-10-29T08:47:16.181Z,4.9
2017-10-29T08:48:17.802Z,4.7
2017-10-29T08:49:19.420Z,4.2
2017-10-29T08:50:21.042Z,4.2
2017-10-29T08:51:22.661Z,5.1
2017-10-29T08:52:24.278Z,4.4
2017-10-29T08:53:25.905Z,4.2
2017-10-29T08:54:27.519Z,4.4
2017-10-29T08:55:29.139Z,5.1
2017-10-29T08:56:30.760Z,5.5
2017-10-29T08:57:32.379Z,5.0
2017-10-29T08:58:33.995Z,4.4
2017-10-29T08:59:35.613Z,4.6
2017-10-29T09:00:37.230Z,4.9
2017-10-29T09:01:38.849Z,4.0
2017-10-29T09:02:40.475Z,4.3
2017-10-29T09:03:42.093Z,4.5
2017-10-29T09:04:43.712Z,4.5
2017-10-29T09:05:45.347Z,4.4
2017-10-29T09:06:46.967Z,4.8
2017-10-29T09:07:48.586Z,3.8
2017-10-29T09:08:50.206Z,4.3
2017-10-29T09:09:51.825Z,4.0
2017-10-29T09:10:53.446Z,4.1
2017-10-29T09:11:55.067Z,4.9
2017-10-29T09:12:56.684Z,4.4
2017-10-29T09:13:58.303Z,4.0
2017-10-29T09:14:59.924Z,5.1
2017-10-29T09:16:01.548Z,4.3
2017-10-29T09:17:03.167Z,3.7
2017-10-29T09:18:04.787Z,4.5
2017-10-29T09:19:06.423Z,4.7
2017-10-29T09:20:08.031Z,4.5
2017-10-29T09:21:09.649Z,4.7
2017-10-29T09:22:11.270Z,4.8
2017-10-29T09:23:12.896Z,4.8
2017-10-29T09:24:14.514Z,4.9
2017-10-29T09:25:16.137Z,4.0
2017-10-29T09:26:17.759Z,5.1
2017-10-29T09:27:19.385Z,3.8
2017-10-29T09:28:20.997Z,4.7
2017-10-29T09:29:22.618Z,4.7
2017-10-29T09:30:24.268Z,4.0
2017-10-29T09:31:25.858Z,4.2
2017-10-29T09:32:27.479Z,3.9
2017-10-29T09:33:29.100Z,4.2
2017-10-29T09:34:30.722Z,4.9
2017-10-29T09:35:32.348Z,3.8
2017-10-29T09:36:33.969Z,4.6
2017-10-29T09:37:35.590Z,3.9
2017-10-29T09:38:37.212Z,4.3
2017-10-29T09:39:38.831Z,4.4
2017-10-29T09:40:40.462Z,4.5
2017-10-29T09:41:42.074Z,3.8
2017-10-29T09:42:43.699Z,3.8
2017-10-29T09:43:45.320Z,3.5
2017-10-29T09:44:46.939Z,4.5
2017-10-29T09:45:48.558Z,4.4
2017-10-29T09:46:50.181Z,3.9
2017-10-29T09:47:51.804Z,3.9
2017-10-29T09:48:53.422Z,4.5
2017-10-29T09:49:55.044Z,4.4
2017-10-29T09:50:56.667Z,3.8
2017-10-29T09:51:58.285Z,4.1
2017-10-29T09:52:59.905Z,3.8
2017-10-29T09:54:01.527Z,4.4
2017-10-29T09:55:03.150Z,3.7
2017-10-29T09:56:04.769Z,4.3
2017-10-29T09:57:06.388Z,4.1
2017-10-29T09:58:08.016Z,4.0
2017-10-29T09:59:09.633Z,4.0
2017-10-29T10:00:11.258Z,4.1
2017-10-29T10:01:12.883Z,3.8
2017-10-29T10:02:14.503Z,3.8
2017-10-29T10:03:16.120Z,4.2
2017-10-29T10:04:17.743Z,4.4
2017-10-29T10:05:19.363Z,4.0
2017-10-29T10:06:20.983Z,4.0
2017-10-29T10:07:22.603Z,3.9
2017-10-29T10:08:24.223Z,3.8
2017-10-29T10:09:25.844Z,4.6
2017-10-29T10:10:27.497Z,3.7
2017-10-29T10:11:29.089Z,3.8
2017-10-29T10:12:30.710Z,3.9
2017-10-29T10:13:32.332Z,4.3
2017-10-29T10:14:33.952Z,3.8
2017-10-29T10:15:35.588Z,3.1
2017-10-29T10:16:37.200Z,3.9
2017-10-29T10:17:38.819Z,3.6
2017-10-29T10:18:40.442Z,3.4
2017-10-29T10:19:42.060Z,3.4
2017-10-29T10:20:43.678Z,3.9
2017-10-29T10:21:45.308Z,3.8
2017-10-29T10:22:46.923Z,3.4
2017-10-29T10:23:48.552Z,4.3
2017-10-29T10:24:50.161Z,3.6
2017-10-29T10:25:51.786Z,3.7
2017-10-29T10:26:53.406Z,3.3
2017-10-29T10:27:55.028Z,3.4
2017-10-29T10:28:56.646Z,3.3
2017-10-29T10:29:58.267Z,3.3
2017-10-29T10:30:59.891Z,3.2
2017-10-29T10:32:01.508Z,2.8
2017-10-29T10:33:03.125Z,3.5
2017-10-29T10:34:04.741Z,3.6
2017-10-29T10:35:06.362Z,3.4
2017-10-29T10:36:07.982Z,3.4
2017-10-29T10:37:09.599Z,3.3
2017-10-29T10:38:11.218Z,2.8
2017-10-29T10:39:12.838Z,2.3
2017-10-29T10:40:14.463Z,2.4
2017-10-29T10:41:16.074Z,2.0
2017-10-29T10:42:17.695Z,2.4
2017-10-29T10:43:19.313Z,2.0
2017-10-29T10:44:20.933Z,1.9
2017-10-29T10:45:22.552Z,1.7
2017-10-29T10:46:24.166Z,1.8
2017-10-29T10:47:25.782Z,1.9
2017-10-29T10:48:27.398Z,1.8
2017-10-29T10:49:29.021Z,2.4
2017-10-29T10:50:30.636Z,2.5
2017-10-29T10:51:32.261Z,2.8
2017-10-29T10:52:33.872Z,2.9
2017-10-29T10:53:35.490Z,2.4
2017-10-29T10:54:37.108Z,2.6
2017-10-29T10:55:38.729Z,2.5
2017-10-29T10:56:40.347Z,3.0
2017-10-29T10:57:41.968Z,2.2
2017-10-29T10:58:43.590Z,2.2
2017-10-29T10:59:45.211Z,2.8
2017-10-29T11:00:46.832Z,3.1
2017-10-29T11:01:48.454Z,2.7
2017-10-29T11:02:50.075Z,2.2
2017-10-29T11:03:51.696Z,2.8
2017-10-29T11:04:53.327Z,2.6
2017-10-29T11:05:54.942Z,2.2
2017-10-29T11:06:56.564Z,2.4
2017-10-29T11:07:58.187Z,2.5
2017-10-29T11:08:59.807Z,2.5
2017-10-29T11:10:01.430Z,2.3
2017-10-29T11:11:03.055Z,2.8
2017-10-29T11:12:04.675Z,2.5
2017-10-29T11:13:06.295Z,2.7
2017-10-29T11:14:07.923Z,2.8
2017-10-29T11:15:09.547Z,2.7
2017-10-29T11:16:11.164Z,2.7
2017-10-29T11:17:12.786Z,3.0
2017-10-29T11:18:14.407Z,2.9
2017-10-29T11:19:16.034Z,3.3
2017-10-29T11:20:17.647Z,2.5
2017-10-29T11:21:19.265Z,2.8
2017-10-29T11:22:20.882Z,3.0
2017-10-29T11:23:22.504Z,2.4
2017-10-29T11:24:24.123Z,2.6
2017-10-29T11:25:25.743Z,2.3
2017-10-29T11:26:27.359Z,2.9
2017-10-29T11:27:28.990Z,3.0
2017-10-29T11:28:30.604Z,2.6
2017-10-29T11:29:32.219Z,2.4
2017-10-29T11:30:33.838Z,2.6
2017-10-29T11:31:35.458Z,2.4
2017-10-29T11:32:37.079Z,2.5
2017-10-29T11:33:38.695Z,2.0
2017-10-29T11:34:40.319Z,2.1
2017-10-29T11:35:41.943Z,2.0
2017-10-29T11:36:43.573Z,2.5
2017-10-29T11:37:45.178Z,2.1
2017-10-29T11:38:46.800Z,2.4
2017-10-29T11:39:48.420Z,2.0
2017-10-29T11:40:50.043Z,2.5
2017-10-29T11:41:51.668Z,2.2
2017-10-29T11:42:53.283Z,2.3
2017-10-29T11:43:54.901Z,2.2
2017-10-29T11:44:56.530Z,2.0
2017-10-29T11:45:58.152Z,2.0
2017-10-29T11:46:59.772Z,2.5
2017-10-29T11:48:01.396Z,2.0
2017-10-29T11:49:03.015Z,2.4
2017-10-29T11:50:04.639Z,2.3
2017-10-29T11:51:06.257Z,2.3
2017-10-29T11:52:07.877Z,2.5
2017-10-29T11:53:09.519Z,2.4
2017-10-29T11:54:11.121Z,2.4
2017-10-29T11:55:12.741Z,2.7
2017-10-29T11:56:14.364Z,2.7
2017-10-29T11:57:15.992Z,2.7
2017-10-29T11:58:17.608Z,3.2
2017-10-29T11:59:19.229Z,2.4
2017-10-29T12:00:20.845Z,2.7
2017-10-29T12:01:22.472Z,2.6
2017-10-29T12:02:24.088Z,2.8
2017-10-29T12:03:25.705Z,2.9
2017-10-29T12:04:27.327Z,3.1
2017-10-29T12:05:28.944Z,2.9
2017-10-29T12:06:30.565Z,2.6
2017-10-29T12:07:32.184Z,2.7
2017-10-29T12:08:33.804Z,2.4
2017-10-29T12:09:35.425Z,3.2
2017-10-29T12:10:37.046Z,3.0
2017-10-29T12:11:38.666Z,2.6
2017-10-29T12:12:40.286Z,2.4
2017-10-29T12:13:41.903Z,2.7
2017-10-29T12:14:43.522Z,1.9
2017-10-29T12:15:45.142Z,2.1
2017-10-29T12:16:46.768Z,2.1
2017-10-29T12:17:48.383Z,2.0
2017-10-29T12:18:50.002Z,2.1
2017-10-29T12:19:51.620Z,1.8
2017-10-29T12:20:53.240Z,1.8
2017-10-29T12:21:54.865Z,2.3
2017-10-29T12:22:56.488Z,2.0
2017-10-29T12:23:58.107Z,2.0
2017-10-29T12:24:59.727Z,1.8
2017-10-29T12:26:01.350Z,2.0
2017-10-29T12:27:02.963Z,1.7
2017-10-29T12:28:04.580Z,1.8
2017-10-29T12:29:06.197Z,2.0
2017-10-29T12:30:07.818Z,1.7
2017-10-29T12:31:09.437Z,1.7
2017-10-29T12:32:11.057Z,1.8
2017-10-29T12:33:12.682Z,1.3
2017-10-29T12:34:14.300Z,1.3
2017-10-29T12:35:15.918Z,1.9
2017-10-29T12:36:17.539Z,1.5
2017-10-29T12:37:19.160Z,1.7
2017-10-29T12:38:20.779Z,1.6
2017-10-29T12:39:22.399Z,1.2
2017-10-29T12:40:24.022Z,1.4
2017-10-29T12:41:25.639Z,1.2
2017-10-29T12:42:27.258Z,1.4
2017-10-29T12:43:28.880Z,1.4
2017-10-29T12:44:30.499Z,1.3
2017-10-29T12:45:32.118Z,1.2
2017-10-29T12:46:33.748Z,1.3
2017-10-29T12:47:35.381Z,1.1
2017-10-29T12:48:37.015Z,1.3
2017-10-29T12:49:38.625Z,1.5
2017-10-29T12:50:40.246Z,1.2
2017-10-29T12:51:41.870Z,1.4
2017-10-29T12:52:43.493Z,1.4
2017-10-29T12:53:45.117Z,1.4
2017-10-29T12:54:46.740Z,1.2
2017-10-29T12:55:48.362Z,1.3
2017-10-29T12:56:49.986Z,1.7
2017-10-29T12:57:51.609Z,1.3
2017-10-29T12:58:53.237Z,1.7
2017-10-29T12:59:54.860Z,1.5
2017-10-29T13:00:56.491Z,1.7
2017-10-29T13:01:58.110Z,1.5
2017-10-29T13:02:59.733Z,1.5
2017-10-29T13:04:01.360Z,1.5
2017-10-29T13:05:02.980Z,1.7
2017-10-29T13:06:04.606Z,1.6
2017-10-29T13:07:06.234Z,1.8
2017-10-29T13:08:07.857Z,1.8
2017-10-29T13:09:09.483Z,2.2
2017-10-29T13:10:11.109Z,2.3
2017-10-29T13:11:12.731Z,2.0
2017-10-29T13:12:14.355Z,2.0
2017-10-29T13:13:15.981Z,2.3
2017-10-29T13:14:17.599Z,2.3
2017-10-29T13:15:19.226Z,2.3
2017-10-29T13:16:20.848Z,2.4
2017-10-29T13:17:22.463Z,2.1
2017-10-29T13:18:24.079Z,1.8
2017-10-29T13:19:25.700Z,1.8
2017-10-29T13:20:27.322Z,1.8
2017-10-29T13:21:28.944Z,1.6
2017-10-29T13:22:30.561Z,1.5
2017-10-29T13:23:32.182Z,1.6
2017-10-29T13:24:33.798Z,1.5
2017-10-29T13:25:35.416Z,1.9
2017-10-29T13:26:37.036Z,2.2
2017-10-29T13:27:38.656Z,2.1
2017-10-29T13:28:40.285Z,2.0
2017-10-29T13:29:41.905Z,2.0
2017-10-29T13:30:43.524Z,1.8
2017-10-29T13:31:45.141Z,1.9
2017-10-29T13:32:46.760Z,2.0
2017-10-29T13:33:48.372Z,1.8
2017-10-29T13:34:49.991Z,1.8
2017-10-29T13:35:51.610Z,1.8
2017-10-29T13:36:53.231Z,1.8
2017-10-29T13:37:54.851Z,1.6
2017-10-29T13:38:56.474Z,1.6
2017-10-29T13:39:58.089Z,1.8
2017-10-29T13:40:59.713Z,1.8
2017-10-29T13:42:01.335Z,1.9
2017-10-29T13:43:02.953Z,1.8
2017-10-29T13:44:04.575Z,1.9
2017-10-29T13:45:06.197Z,1.9
2017-10-29T13:46:07.815Z,1.7
2017-10-29T13:47:09.437Z,1.6
2017-10-29T13:48:11.057Z,2.0
2017-10-29T13:49:12.679Z,1.7
2017-10-29T13:50:14.301Z,2.0
2017-10-29T13:51:15.924Z,2.0
2017-10-29T13:52:17.547Z,2.3
2017-10-29T13:53:19.169Z,1.9
2017-10-29T13:54:20.796Z,1.7
2017-10-29T13:55:22.409Z,2.1
2017-10-29T13:56:24.031Z,2.5
2017-10-29T13:57:25.661Z,2.2
2017-10-29T13:58:27.283Z,2.1
2017-10-29T13:59:28.903Z,2.1
2017-10-29T14:00:30.525Z,1.9
2017-10-29T14:01:32.146Z,2.1
2017-10-29T14:02:33.765Z,1.9
2017-10-29T14:03:35.385Z,2.1
2017-10-29T14:04:37.008Z,2.3
2017-10-29T14:05:38.629Z,2.1